PPR Request

Ennakkolupa on pakollinen lentoonlähtöjä ja laskuja varten. Pyydä ennakkolupa tästä.

Aerodrome Status

Updated 25 JUN 2017 22:12 LT

  • Some asphalt damage south of RWY 36 threshold.
  • Taxiway K, L and A lights U/S.
  • Water patches on RWY, apron and TWY.
  • Grass cutting in progress until 26 June.

Contact duty officer at +358 20 7545 129 for more information.

Weather


Helsinki Malmi lentokenttä
AWS ILHF 252340Z AUTO 20010KT 9999 -SHRA BKN009 13/11 Q0994=

METAR EFHK 252350Z 18011KT 9999 FEW009 BKN012 BKN065 12/11 Q0994 TEMPO SCT012 BKN065=
TAF EFHK 252331Z 2600/2624 20008KT 9999 BKN020 TEMPO 2600/2601 BKN020CB PROB30 TEMPO 2601/2604 3000 BR BKN006 TEMPO 2605/2616 SHRA SCT035CB PROB40 TEMPO 2605/2615 TS=

Shell fuel service opening hours

Shell Aviation/Hki-Malmi

Beginning at 15 april 2017

Monday closed

Tuesday – Saturday 10.00-17.30 LCT

Sunday closed

Exception weeks 22, 25, 27 and 31 open Monday – Friday 10.00-17.30 LCT  Saturday – Sunday closed.

Contact: Shell Aviation/JF-Training Oy

Phone when open: 040 – 484 1241

Otherwise JF-Training Oy, mr. Tapio Mäkinen: 0400 – 777 641

—–

Aukioloajat 15.04.2017 alkaen:

Maanantai suljettu

Tiistai – Lauantai 10.00 – 17.30 LCT

Sunnuntai suljettu

Poikkeuksena viikot 22, 25, 27 ja 31 avoinna maanantai – perjantai 10.00 – 17.30 LCT,  lauantai – sunnuntai suljettu.

Yhteystiedot Shell Aviation/JF-Training Oy

Polttoainejakelun aukioloaikoina: 040 – 484 1241

Muina aikoina JF-Training Oy Tapio Mäkinen: 0400 – 777 641

Laskukierroslentäminen

Laskukierroslentäminen vaatii ennakkoluvan. Laskukierrosvaraukset puhelimitse Kenttäpäivystäjälle 020 7545 129.

Laskukierroslentäminen on mahdollista seuraavina aikoina (paikallista aikaa):

  • maanantaista perjantaihin 09.00–19.00
  • lauantaisin 10.00–17.00
  • sunnuntaisin 11.00–17.00

Muina aikoina sekä yleisinä arkipyhä- ja juhlapäivinä (REF AIP GEN 2.1-4) laskukierroslentäminen on kielletty.